Kingston Springs, Tennessee
Current Conditions -  °F | °C
As of 12:05 AM on Monday 24 Nov 2014 (Local Time) from KBNA Reporting Station
Broken Clouds Broken Clouds  
Wind Chill: 63°   Ceiling: 6500
Heat Index: 63°   Visibility: 10mi
Dew Point: 57°   Wind: 14mph
Humidity: 82%   Direction: 200°SSW
Pressure: 29.5"   Gusts: NA
Location:  36.1°N, 87.12°W
Report Text: KBNA 240605Z 20012KT 10SM SCT024 BKN065 17/14 A2950 RMK AO2
Loading
Personal Weather Stations






























Interactive Weather Map New forecast layout! Learn more

10-Day Weather Forecast

Advertisements
Track Severe Weather on mobile